EGGDLIRA

Guest
Details From EGGD - Bristol Lulsgate
To LIRA - Ciampino
Flight Number -
Tags Generated
Created
Modified
Stats Distance 852 nm / 1,577 km
Max Altitude 0 ft / 0 m
Waypoints 5
Social Downloads 1
Likes 0
Share VATSIM

Download

Looking for another format? Having issues loading an existing format? Contact us
Advertisement - Login to hide

Notes

Generated

Route

EGGD PO085 TONDA R1815 LIRA

ID Type Via Altitude Latitude Longitude Leg Dist Tot Dist Heading (true) Name
O EGGD APT - 0 ft / 0 m 51.38211˚ -2.73350˚ - 0 nm - -
PO085 FIX - 0 ft / 0 m 48.64103˚ 2.62756˚ 264 nm 264 nm 126° / 131° -
TONDA FIX - 0 ft / 0 m 45.10917˚ 8.22972˚ 312 nm 577 nm 131° / 135° -
R1815 FIX - 0 ft / 0 m 41.80806˚ 12.58883˚ 274 nm 851 nm 135° / 138° -
O LIRA APT - 0 ft / 0 m 41.80806˚ 12.58883˚ 0 nm 851 nm 0° / 180° -

Altitude Profile

Advertisement - Login to hide

Weather


0- 5 10 15 20 25 30 35+ Temperature / ° C

Clouds and Precipitation
Forecast for 2017-12-16 06:00 UTC. Updated an hour ago

Ground ~20,000 ft ~40,000 ft Winds

EGGD

Details ICAO EGGD (BRS)
Name Bristol International
Region United Kingdom
Timezone Europe/London (UTC+0.0)
Stats Elevation 622 ft / 190 m (AMSL)
Location 51.382658° -2.718918°
Runways 1
Magnetic Variation 1.350° W

METAR

EGGD 160220Z AUTO 28007KT 9999 NCD 01/M01 Q1014

Decode

TAF

TAF EGGD 152304Z 1600/1624 30008KT 9999 FEW020 PROB30 TEMPO 1614/1620 29015G25KT 8000 -SHRA BKN014 PROB30 TEMPO 1620/1624 BKN012

Decode

Departure Runways

ID Width Length Bearing (true) Bearing (mag) Surface Threshold Offset Overrun Length
09 148 ft / 45 m 6,655 ft / 2,029 m 86.42° 87.77° Asphalt 0 ft / 0 m 0 ft / 0 m
27 148 ft / 45 m 6,655 ft / 2,029 m 266.44° 267.79° Asphalt 499 ft / 152 m 0 ft / 0 m

LIRA

Details ICAO LIRA (CIA)
Name CIAMPINO
Region Italy
Timezone Europe/Rome (UTC+1.0)
Stats Elevation 427 ft / 130 m (AMSL)
Location 41.799228° 12.594917°
Runways 1
Magnetic Variation 3.058° E

METAR

LIRA 160150Z 08005KT 9999 FEW030 08/05 Q1003

Decode

TAF

TAF LIRA 152300Z 1600/1624 VRB05KT 9999 SCT030 TEMPO 1610/1618 SHRA

Decode

Destination Runways

ID Width Length Bearing (true) Bearing (mag) Surface Threshold Offset Overrun Length
15 154 ft / 47 m 7,246 ft / 2,209 m 152.79° 149.73° Asphalt 0 ft / 0 m 0 ft / 0 m
33 154 ft / 47 m 7,246 ft / 2,209 m 332.80° 329.74° Asphalt 0 ft / 0 m 0 ft / 0 m

Approach Navaids

Runway Type Ident Frequency Range Bearing (true) Bearing (mag) Slope Elevation
15 Localiser CIA 109.90 MHz 18 nm / 33 km 152.81° 149.75° - 426 ft / 130 m (AMSL)
15 Glidescope CIA 109.90 MHz 10 nm / 19 km 152.79° 149.74° 3.00° 384 ft / 117 m (AMSL)

Popular Alternatives